Monterey (MRY/KMRY)

Map

Destinations

Information

Location
Monterey, CA
Local Time
04:51 / 4:51 am
GMT Time
12:51 / 12:51 pm
Gates
Unassigned
No FAA reported delays
METAR KMRY 161154Z AUTO 08004KT 10SM CLR 02/01 A3010 RMK AO2 SLP207 T00220011 10050 20022 55004
TAF KMRY 161138Z 1612/1712 12004KT P6SM SKC FM162000 31005KT P6SM FEW200 FM170300 12004KT P6SM SKC FM171000 12006KT P6SM FEW010
  • No charts available